Time;durP1;ratioP1;P1;durP2;ratioP2;P2;SDS_P1;SDS_P2;PMS_P1;PMS_P2;Temp;Humidity;BMP_temperature;BMP_pressure;BME280_temperature;BME280_humidity;BME280_pressure;Samples;Min_cycle;Max_cycle;Signal;HPM_P1;HPM_P2
2022/09/04 00:01:02;;;;;;;4.55;2.90;;;17.30;99.90;;;;;;5031322;28;20036;-91
2022/09/04 00:03:49;;;;;;;6.90;3.15;;;17.20;99.90;;;;;;5044620;28;20049;-90
2022/09/04 00:06:24;;;;;;;5.80;3.20;;;17.20;99.90;;;;;;5042757;28;20041;-90
2022/09/04 00:09:06;;;;;;;8.07;3.35;;;17.20;99.90;;;;;;5036641;28;20052;-89
2022/09/04 00:11:43;;;;;;;7.55;2.92;;;17.20;99.90;;;;;;5032798;28;20112;-91
2022/09/04 00:14:36;;;;;;;10.88;3.28;;;17.10;99.90;;;;;;5034922;28;20032;-91
2022/09/04 00:17:15;;;;;;;7.63;2.97;;;17.10;99.90;;;;;;5071168;28;20108;-89
2022/09/04 00:19:58;;;;;;;5.55;3.13;;;17.10;99.90;;;;;;5046101;28;20482;-89
2022/09/04 00:22:32;;;;;;;6.68;4.65;;;17.00;99.90;;;;;;5046785;28;20043;-89
2022/09/04 00:25:30;;;;;;;5.75;3.00;;;16.90;99.90;;;;;;5044893;28;20072;-90
2022/09/04 00:28:18;;;;;;;6.70;4.03;;;16.90;99.90;;;;;;5052228;28;20591;-90
2022/09/04 00:31:17;;;;;;;13.27;3.90;;;16.80;99.90;;;;;;5044618;28;20044;-89
2022/09/04 00:33:56;;;;;;;9.35;3.78;;;16.80;99.90;;;;;;5065082;28;20031;-90
2022/09/04 00:36:26;;;;;;;8.13;4.03;;;16.70;99.90;;;;;;5042448;28;20016;-90
2022/09/04 00:39:02;;;;;;;7.88;4.20;;;16.60;99.90;;;;;;5066348;28;20040;-89
2022/09/04 00:41:58;;;;;;;5.97;3.47;;;16.60;99.90;;;;;;5048057;28;20048;-89
2022/09/04 00:44:55;;;;;;;8.32;3.60;;;16.50;99.90;;;;;;5071311;28;20446;-88
2022/09/04 00:47:26;;;;;;;6.30;3.45;;;16.50;99.90;;;;;;5046482;28;20023;-88
2022/09/04 00:50:07;;;;;;;7.30;3.25;;;16.50;99.90;;;;;;5050011;28;20028;-88
2022/09/04 00:53:18;;;;;;;5.18;2.90;;;16.40;99.90;;;;;;5052598;28;20080;-89
2022/09/04 00:56:24;;;;;;;6.60;2.80;;;16.40;99.90;;;;;;5019604;28;20040;-89
2022/09/04 00:58:55;;;;;;;9.48;3.28;;;16.40;99.90;;;;;;5045705;28;20052;-90
2022/09/04 01:01:26;;;;;;;7.90;3.40;;;16.40;99.90;;;;;;5064082;28;20040;-90
2022/09/04 01:04:13;;;;;;;8.02;3.35;;;16.40;99.90;;;;;;5068801;28;20231;-89
2022/09/04 01:06:58;;;;;;;7.25;3.50;;;16.40;99.90;;;;;;5066303;28;20025;-88
2022/09/04 01:09:50;;;;;;;7.07;3.55;;;16.40;99.90;;;;;;5054148;28;20024;-88
2022/09/04 01:12:29;;;;;;;7.13;3.30;;;16.50;99.90;;;;;;5053081;28;20023;-90
2022/09/04 01:15:10;;;;;;;9.02;3.35;;;16.50;99.90;;;;;;5062462;28;20025;-90
2022/09/04 01:17:55;;;;;;;;;;;16.50;99.90;;;;;;5066879;28;20115;-90
2022/09/04 01:20:43;;;;;;;6.70;3.33;;;16.50;99.90;;;;;;5070270;28;19975;-89
2022/09/04 01:23:30;;;;;;;12.20;4.20;;;16.50;99.90;;;;;;5049314;28;20056;-88
2022/09/04 01:26:24;;;;;;;6.05;3.20;;;16.50;99.90;;;;;;5053263;28;20024;-89
2022/09/04 01:29:12;;;;;;;6.93;3.15;;;16.50;99.90;;;;;;5060802;28;20044;-89
2022/09/04 01:31:43;;;;;;;6.93;3.22;;;16.50;99.90;;;;;;5053439;28;20027;-89
2022/09/04 01:34:33;;;;;;;6.97;2.97;;;16.50;99.90;;;;;;5062259;28;20207;-89
2022/09/04 01:37:42;;;;;;;12.25;3.53;;;16.50;99.90;;;;;;5046057;28;20074;-90
2022/09/04 01:40:29;;;;;;;7.43;3.10;;;16.50;99.90;;;;;;5042985;28;20087;-88
2022/09/04 01:43:17;;;;;;;7.00;2.85;;;16.50;99.90;;;;;;5065275;28;20036;-90
2022/09/04 01:46:03;;;;;;;4.32;2.55;;;16.50;99.90;;;;;;5070416;28;20037;-88
2022/09/04 01:48:41;;;;;;;6.03;3.15;;;16.50;99.90;;;;;;5070418;28;20098;-89
2022/09/04 01:51:43;;;;;;;9.18;3.40;;;16.50;99.90;;;;;;5056108;28;20028;-89
2022/09/04 01:54:24;;;;;;;5.13;2.80;;;16.50;99.90;;;;;;5055543;28;20032;-88
2022/09/04 01:57:08;;;;;;;;;;;16.50;99.90;;;;;;5055445;28;20063;-89
2022/09/04 01:59:45;;;;;;;5.03;2.67;;;16.50;99.90;;;;;;5044434;28;19922;-89
2022/09/04 02:02:18;;;;;;;12.82;3.10;;;16.50;99.90;;;;;;5068744;28;20021;-91
2022/09/04 02:05:05;;;;;;;6.72;2.75;;;16.50;99.90;;;;;;5044980;28;20033;-89
2022/09/04 02:07:45;;;;;;;5.05;2.60;;;16.40;99.90;;;;;;5046764;28;20049;-91
2022/09/04 02:10:20;;;;;;;5.50;2.50;;;16.50;99.90;;;;;;5046976;28;20109;-89
2022/09/04 02:13:23;;;;;;;5.30;2.35;;;16.40;99.90;;;;;;5046323;28;20067;-89
2022/09/04 02:15:52;;;;;;;8.57;2.85;;;16.40;99.90;;;;;;5071723;28;20033;-90
2022/09/04 02:18:26;;;;;;;4.68;2.60;;;16.50;99.90;;;;;;5049040;28;20028;-89
2022/09/04 02:21:01;;;;;;;4.78;2.65;;;16.40;99.90;;;;;;5055767;28;20028;-88
2022/09/04 02:23:42;;;;;;;6.45;2.17;;;16.40;99.90;;;;;;5046459;28;20021;-90
2022/09/04 02:26:08;;;;;;;5.90;2.65;;;16.40;99.90;;;;;;5046576;28;20459;-89
2022/09/04 02:28:55;;;;;;;9.57;2.70;;;16.40;99.90;;;;;;5047847;28;20019;-89
2022/09/04 02:31:32;;;;;;;4.72;2.65;;;16.40;99.90;;;;;;5067816;28;20038;-87
2022/09/04 02:34:20;;;;;;;5.60;2.80;;;16.40;99.90;;;;;;5066386;28;20044;-89
2022/09/04 02:36:55;;;;;;;7.75;2.83;;;16.40;99.90;;;;;;5068189;28;20094;-89
2022/09/04 02:39:23;;;;;;;6.72;2.63;;;16.40;99.90;;;;;;5047940;28;20052;-90
2022/09/04 02:42:18;;;;;;;4.72;2.25;;;16.40;99.90;;;;;;5070950;28;20025;-89
2022/09/04 02:45:08;;;;;;;7.47;2.70;;;16.40;99.90;;;;;;5054567;28;20036;-89
2022/09/04 02:47:41;;;;;;;6.00;2.72;;;16.30;99.90;;;;;;5052873;28;20069;-90
2022/09/04 02:50:18;;;;;;;6.43;2.97;;;16.30;99.90;;;;;;5048386;28;20363;-90
2022/09/04 02:53:08;;;;;;;7.65;2.72;;;16.30;99.90;;;;;;5073519;28;20037;-89
2022/09/04 02:56:07;;;;;;;5.70;2.63;;;16.30;99.90;;;;;;5054742;28;20025;-90
2022/09/04 02:59:01;;;;;;;7.22;3.20;;;16.30;99.90;;;;;;5069426;28;20049;-90
2022/09/04 03:01:45;;;;;;;5.82;2.20;;;16.30;99.90;;;;;;5072730;28;20346;-89
2022/09/04 03:04:23;;;;;;;6.13;2.67;;;16.30;99.90;;;;;;5054518;28;20357;-89
2022/09/04 03:07:20;;;;;;;10.30;2.45;;;16.30;99.90;;;;;;5066375;28;20386;-89
2022/09/04 03:09:52;;;;;;;9.00;2.65;;;16.30;99.90;;;;;;5046019;28;20090;-91
2022/09/04 03:12:51;;;;;;;7.50;2.80;;;16.20;99.90;;;;;;5046877;28;20027;-91
2022/09/04 03:15:30;;;;;;;7.38;3.00;;;16.30;99.90;;;;;;5047180;28;20017;-89
2022/09/04 03:18:14;;;;;;;5.78;2.88;;;16.20;99.90;;;;;;5068573;28;20032;-90
2022/09/04 03:21:01;;;;;;;5.63;2.30;;;16.20;99.90;;;;;;5047782;28;20055;-89
2022/09/04 03:23:27;;;;;;;5.68;2.67;;;16.20;99.90;;;;;;5056061;28;20020;-89
2022/09/04 03:25:58;;;;;;;11.30;2.72;;;16.30;99.90;;;;;;5073660;28;20028;-91
2022/09/04 03:28:45;;;;;;;6.47;2.55;;;16.30;99.90;;;;;;5051339;28;20565;-92
2022/09/04 03:31:23;;;;;;;8.05;2.92;;;16.30;99.90;;;;;;5054194;28;20020;-90
2022/09/04 03:34:09;;;;;;;5.78;2.42;;;16.30;99.90;;;;;;5071020;28;20017;-89
2022/09/04 03:36:58;;;;;;;8.32;2.50;;;16.30;99.90;;;;;;5053915;28;20032;-91
2022/09/04 03:39:42;;;;;;;4.97;2.80;;;16.30;99.90;;;;;;5061154;28;20039;-87
2022/09/04 03:42:14;;;;;;;7.80;2.47;;;16.30;99.90;;;;;;5089127;28;20013;-89
2022/09/04 03:44:42;;;;;;;11.32;3.05;;;16.30;99.90;;;;;;5063706;28;20043;-90
2022/09/04 03:47:23;;;;;;;5.95;2.80;;;16.20;99.90;;;;;;5073136;28;20056;-90
2022/09/04 03:50:17;;;;;;;9.50;3.28;;;16.20;99.90;;;;;;5045649;28;20025;-89
2022/09/04 03:53:14;;;;;;;7.93;2.75;;;16.20;99.90;;;;;;5044346;28;20029;-89
2022/09/04 03:56:11;;;;;;;10.63;3.05;;;16.20;99.90;;;;;;5049631;28;20397;-91
2022/09/04 03:58:59;;;;;;;7.47;3.63;;;16.20;99.90;;;;;;5054843;28;20041;-89
2022/09/04 04:01:54;;;;;;;4.43;3.08;;;16.20;99.90;;;;;;5048026;28;20037;-89
2022/09/04 04:04:41;;;;;;;5.75;2.72;;;16.20;99.90;;;;;;5055889;28;20487;-91
2022/09/04 04:07:37;;;;;;;5.53;3.20;;;16.20;99.90;;;;;;5069471;28;20096;-90
2022/09/04 04:10:14;;;;;;;8.93;3.50;;;16.20;99.90;;;;;;5053953;28;20032;-91
2022/09/04 04:13:11;;;;;;;13.48;3.47;;;16.20;99.90;;;;;;5062701;28;20012;-89
2022/09/04 04:15:59;;;;;;;10.38;3.42;;;16.30;99.90;;;;;;5046402;28;20028;-89
2022/09/04 04:19:05;;;;;;;7.10;3.08;;;16.20;99.90;;;;;;5062029;28;20037;-90
2022/09/04 04:21:55;;;;;;;12.57;3.47;;;16.30;99.90;;;;;;5047558;28;20052;-90
2022/09/04 04:24:21;;;;;;;8.60;4.13;;;16.30;99.90;;;;;;5079961;28;20068;-89
2022/09/04 04:27:11;;;;;;;7.57;3.83;;;16.20;99.90;;;;;;5047293;28;20475;-90
2022/09/04 04:30:04;;;;;;;10.13;3.50;;;16.30;99.90;;;;;;5071611;28;20017;-89
2022/09/04 04:33:05;;;;;;;8.40;3.65;;;16.20;99.90;;;;;;5046346;28;20035;-90
2022/09/04 04:35:59;;;;;;;8.45;3.55;;;16.30;99.90;;;;;;5011500;28;20495;-90
2022/09/04 04:38:52;;;;;;;7.90;3.70;;;16.20;99.90;;;;;;5011923;28;20042;-89
2022/09/04 04:41:30;;;;;;;9.75;3.55;;;16.20;99.90;;;;;;5011265;28;20117;-89
2022/09/04 04:45:48;;;;;;;6.70;3.60;;;16.30;99.90;;;;;;5013695;28;20097;-90
2022/09/04 04:47:39;;;;;;;10.23;3.97;;;16.20;99.90;;;;;;5009419;28;20097;-89
2022/09/04 04:50:18;;;;;;;5.28;3.50;;;16.20;99.90;;;;;;4932603;29;20032;-90
2022/09/04 04:52:57;;;;;;;12.98;4.65;;;16.20;99.90;;;;;;4932884;29;20498;-91
2022/09/04 04:55:40;;;;;;;7.50;4.10;;;16.30;99.90;;;;;;4933487;29;20485;-90
2022/09/04 04:58:24;;;;;;;8.00;3.83;;;16.30;99.90;;;;;;4917238;29;20039;-89
2022/09/04 05:01:04;;;;;;;6.90;4.10;;;16.40;99.90;;;;;;4933040;29;20139;-89
2022/09/04 05:03:49;;;;;;;10.43;4.28;;;16.40;99.90;;;;;;4933314;29;20060;-90
2022/09/04 05:06:26;;;;;;;9.85;4.10;;;16.50;99.90;;;;;;4932940;29;20031;-91
2022/09/04 05:09:10;;;;;;;12.05;5.38;;;16.50;99.90;;;;;;4945819;28;20454;-90
2022/09/04 05:12:07;;;;;;;10.20;4.30;;;16.50;99.90;;;;;;4981283;28;20182;-89
2022/09/04 05:15:00;;;;;;;11.10;4.65;;;16.50;99.90;;;;;;4965834;28;20039;-90
2022/09/04 05:17:37;;;;;;;7.72;4.53;;;16.40;99.90;;;;;;4978534;28;20045;-88
2022/09/04 05:20:39;;;;;;;9.98;4.65;;;16.40;99.90;;;;;;4987439;28;20054;-90
2022/09/04 05:23:36;;;;;;;12.48;5.40;;;16.40;99.90;;;;;;4990689;28;20145;-90
2022/09/04 05:26:23;;;;;;;10.07;4.97;;;16.40;99.90;;;;;;5008023;28;20026;-91
2022/09/04 05:28:59;;;;;;;8.98;5.07;;;16.40;99.90;;;;;;5056793;28;20089;-89
2022/09/04 05:31:47;;;;;;;9.15;5.15;;;16.40;99.90;;;;;;5064083;28;20078;-89
2022/09/04 05:34:48;;;;;;;9.13;4.55;;;16.40;99.90;;;;;;5066962;28;20073;-91
2022/09/04 05:37:24;;;;;;;8.68;5.13;;;16.30;99.90;;;;;;5045757;28;20021;-90
2022/09/04 05:40:14;;;;;;;10.75;5.45;;;16.30;99.90;;;;;;5075167;28;20051;-92
2022/09/04 05:43:06;;;;;;;13.70;4.90;;;16.30;99.90;;;;;;5072121;28;20541;-91
2022/09/04 05:46:16;;;;;;;12.88;6.97;;;16.30;99.90;;;;;;5057857;28;20028;-91
2022/09/04 05:48:49;;;;;;;10.98;5.55;;;16.30;99.90;;;;;;5017318;28;20588;-91
2022/09/04 05:51:46;;;;;;;10.30;5.68;;;16.20;99.90;;;;;;5015656;28;20029;-88
2022/09/04 05:54:35;;;;;;;10.73;4.93;;;16.20;99.90;;;;;;5013910;28;20037;-89
2022/09/04 05:57:38;;;;;;;12.75;5.88;;;16.20;99.90;;;;;;5031267;28;20056;-88
2022/09/04 06:00:18;;;;;;;11.35;6.20;;;16.30;99.90;;;;;;5015056;28;20068;-89
2022/09/04 06:03:32;;;;;;;9.38;6.47;;;16.30;99.90;;;;;;5031607;28;20124;-88
2022/09/04 06:06:34;;;;;;;13.00;6.55;;;16.30;99.90;;;;;;4998045;28;20042;-88
2022/09/04 06:09:18;;;;;;;14.23;6.35;;;16.30;99.90;;;;;;5031941;28;20033;-88
2022/09/04 06:12:02;;;;;;;13.48;7.35;;;16.30;99.90;;;;;;5031059;28;20072;-88
2022/09/04 06:15:00;;;;;;;13.43;5.93;;;16.30;99.90;;;;;;5031472;28;20025;-88
2022/09/04 06:17:45;;;;;;;14.40;6.90;;;16.30;99.90;;;;;;5031004;28;20017;-87
2022/09/04 06:20:38;;;;;;;10.00;6.32;;;16.30;99.90;;;;;;5057760;28;20121;-87
2022/09/04 06:23:13;;;;;;;13.15;6.88;;;16.30;99.90;;;;;;5053333;28;20021;-88
2022/09/04 06:26:10;;;;;;;10.30;6.80;;;16.40;99.90;;;;;;5070723;28;20021;-87
2022/09/04 06:29:01;;;;;;;12.90;6.80;;;16.40;99.90;;;;;;5063986;28;20036;-86
2022/09/04 06:31:35;;;;;;;13.23;6.57;;;16.40;99.90;;;;;;5059965;28;20031;-88
2022/09/04 06:34:44;;;;;;;13.77;7.55;;;16.40;99.90;;;;;;5055692;28;20020;-88
2022/09/04 06:37:32;;;;;;;12.00;7.18;;;16.40;99.90;;;;;;5052513;28;20017;-87
2022/09/04 06:40:09;;;;;;;12.95;6.88;;;16.40;99.90;;;;;;5066425;28;20037;-87
2022/09/04 06:43:06;;;;;;;13.45;7.13;;;16.40;99.90;;;;;;5052668;28;20393;-88
2022/09/04 06:46:01;;;;;;;12.07;7.03;;;16.40;99.90;;;;;;5045081;28;20016;-88
2022/09/04 06:49:06;;;;;;;10.80;7.53;;;16.40;99.90;;;;;;5068505;28;20034;-87
2022/09/04 06:52:06;;;;;;;17.27;7.78;;;16.40;99.90;;;;;;5052837;28;20016;-88
2022/09/04 06:54:51;;;;;;;;;;;16.40;99.90;;;;;;5060888;28;20017;-87
2022/09/04 06:57:46;;;;;;;13.90;7.53;;;16.40;99.90;;;;;;5069839;28;19927;-88
2022/09/04 07:00:18;;;;;;;11.30;7.60;;;16.40;99.90;;;;;;5024567;28;20036;-88
2022/09/04 07:02:53;;;;;;;16.63;7.38;;;16.40;99.90;;;;;;5046079;28;20070;-89
2022/09/04 07:05:51;;;;;;;14.43;7.85;;;16.40;99.90;;;;;;5055617;28;20493;-89
2022/09/04 07:08:19;;;;;;;16.38;7.82;;;16.50;99.90;;;;;;5070544;28;20040;-90
2022/09/04 07:11:02;;;;;;;12.05;6.68;;;16.50;99.90;;;;;;5070194;28;20100;-89
2022/09/04 07:14:06;;;;;;;20.27;8.32;;;16.50;99.90;;;;;;5084325;28;20036;-87
2022/09/04 07:16:46;;;;;;;15.60;7.50;;;16.50;99.90;;;;;;5050127;28;20032;-91
2022/09/04 07:19:18;;;;;;;11.40;7.57;;;16.50;99.90;;;;;;5044015;28;20032;-90
2022/09/04 07:21:43;;;;;;;13.68;8.50;;;16.50;99.90;;;;;;5068214;28;20500;-89
2022/09/04 07:24:46;;;;;;;16.98;8.52;;;16.50;99.90;;;;;;5054964;28;20036;-89
2022/09/04 07:27:51;;;;;;;18.73;8.65;;;16.50;99.90;;;;;;5050915;28;20017;-89
2022/09/04 07:30:19;;;;;;;14.68;8.85;;;16.60;99.90;;;;;;5045311;28;20037;-88
2022/09/04 07:32:53;;;;;;;19.77;9.15;;;16.60;99.90;;;;;;5048866;28;20046;-89
2022/09/04 07:35:44;;;;;;;10.93;8.00;;;16.60;99.90;;;;;;5069076;28;20033;-89
2022/09/04 07:38:31;;;;;;;12.02;7.65;;;16.60;99.90;;;;;;5052795;28;20075;-88
2022/09/04 07:41:22;;;;;;;15.13;7.93;;;16.60;99.90;;;;;;5051309;28;20028;-89
2022/09/04 07:44:02;;;;;;;;;;;16.60;99.90;;;;;;5071801;28;20025;-89
2022/09/04 07:46:46;;;;;;;10.45;7.22;;;16.70;99.90;;;;;;5062615;28;19916;-91
2022/09/04 07:49:14;;;;;;;14.27;7.47;;;16.70;99.90;;;;;;5070880;28;20033;-89
2022/09/04 07:52:02;;;;;;;13.43;7.70;;;16.70;99.90;;;;;;5046988;28;20020;-88
2022/09/04 07:54:43;;;;;;;15.57;8.27;;;16.70;99.90;;;;;;5056119;28;20029;-90
2022/09/04 07:57:20;;;;;;;19.45;8.65;;;16.70;99.90;;;;;;5043195;28;20053;-90
2022/09/04 08:00:05;;;;;;;17.05;7.47;;;16.70;99.90;;;;;;5043223;28;20041;-89
2022/09/04 08:03:00;;;;;;;11.18;7.65;;;16.80;99.90;;;;;;5069633;28;20459;-88
2022/09/04 08:05:50;;;;;;;17.45;7.18;;;16.80;99.90;;;;;;5064649;28;20025;-90
2022/09/04 08:08:50;;;;;;;13.50;7.72;;;16.90;99.90;;;;;;5066853;28;20028;-89
2022/09/04 08:11:24;;;;;;;15.95;7.55;;;16.90;99.90;;;;;;5068751;28;20104;-88
2022/09/04 08:14:21;;;;;;;14.27;8.13;;;16.90;99.90;;;;;;5066566;28;20382;-88
2022/09/04 08:17:24;;;;;;;16.80;9.70;;;16.90;99.90;;;;;;5066514;28;20102;-89
2022/09/04 08:20:15;;;;;;;16.45;8.35;;;17.00;99.90;;;;;;5047767;28;20067;-89
2022/09/04 08:22:41;;;;;;;15.25;8.27;;;17.00;99.90;;;;;;5071176;28;20052;-91
2022/09/04 08:25:28;;;;;;;17.35;8.60;;;17.00;99.90;;;;;;5050587;28;20063;-88
2022/09/04 08:28:16;;;;;;;20.40;8.82;;;17.10;99.90;;;;;;5068018;28;20562;-89
2022/09/04 08:30:53;;;;;;;15.85;8.30;;;17.10;99.90;;;;;;5076183;28;20036;-92
2022/09/04 08:33:28;;;;;;;14.70;7.55;;;17.20;99.90;;;;;;5065154;28;20021;-91
2022/09/04 08:36:29;;;;;;;15.68;7.82;;;17.20;99.90;;;;;;5064012;28;20020;-91
2022/09/04 08:39:10;;;;;;;17.58;8.07;;;17.30;99.90;;;;;;5052831;28;20044;-90
2022/09/04 08:42:14;;;;;;;13.82;7.38;;;17.40;99.90;;;;;;5065247;28;20024;-90
2022/09/04 08:45:12;;;;;;;17.33;7.95;;;17.50;99.90;;;;;;5013388;28;20065;-90
2022/09/04 08:48:17;;;;;;;14.48;7.32;;;17.60;99.90;;;;;;5001247;28;20049;-91
2022/09/04 08:50:55;;;;;;;15.35;7.32;;;17.70;99.90;;;;;;4946058;28;20145;-92
2022/09/04 08:54:05;;;;;;;18.13;7.78;;;17.90;99.90;;;;;;4956118;29;20039;-92
2022/09/04 08:56:35;;;;;;;16.20;7.82;;;17.80;99.90;;;;;;4915093;29;20072;-92
2022/09/04 08:59:39;;;;;;;16.55;6.75;;;17.90;99.90;;;;;;4888602;29;20052;-92
2022/09/04 09:02:33;;;;;;;14.48;7.47;;;17.80;99.90;;;;;;4904299;29;20028;-92
2022/09/04 09:05:29;;;;;;;16.17;7.85;;;17.90;99.90;;;;;;4879264;29;20130;-92
2022/09/04 09:08:33;;;;;;;14.13;7.55;;;17.90;99.90;;;;;;4876372;29;20067;-91
2022/09/04 09:11:24;;;;;;;14.13;6.85;;;17.90;99.90;;;;;;4883888;29;20042;-92
2022/09/04 09:14:26;;;;;;;13.20;7.13;;;18.00;99.90;;;;;;4897661;29;20139;-89
2022/09/04 09:16:54;;;;;;;13.38;6.78;;;18.00;99.90;;;;;;4880652;29;20056;-92
2022/09/04 09:19:32;;;;;;;13.77;7.30;;;18.10;99.90;;;;;;4878637;29;20135;-91
2022/09/04 09:22:10;;;;;;;18.02;7.05;;;18.10;99.90;;;;;;4878408;29;20037;-93
2022/09/04 09:25:22;;;;;;;12.48;6.68;;;18.10;99.90;;;;;;4862588;29;20041;-92
2022/09/04 09:28:08;;;;;;;16.23;6.70;;;18.20;99.90;;;;;;4919084;28;20065;-93
2022/09/04 09:31:12;;;;;;;16.70;6.35;;;18.20;99.90;;;;;;4973520;28;20031;-91
2022/09/04 09:34:04;;;;;;;12.13;6.45;;;18.30;99.90;;;;;;4983926;28;20117;-91
2022/09/04 09:37:01;;;;;;;14.95;6.53;;;18.30;99.90;;;;;;4980269;28;20034;-92
2022/09/04 09:39:49;;;;;;;10.10;6.78;;;18.30;99.90;;;;;;4978995;28;20043;-91
2022/09/04 09:42:23;;;;;;;12.82;5.80;;;18.40;99.90;;;;;;4959448;28;20081;-92
2022/09/04 09:45:26;;;;;;;12.50;6.00;;;18.50;99.90;;;;;;4962822;28;20082;-94
2022/09/04 09:48:24;;;;;;;10.57;5.82;;;18.60;99.90;;;;;;4974326;28;20038;-93
2022/09/04 09:50:58;;;;;;;15.27;5.43;;;18.70;99.90;;;;;;4968083;28;20110;-90
2022/09/04 09:53:54;;;;;;;14.65;5.65;;;18.80;99.90;;;;;;4998699;28;20032;-90
2022/09/04 09:56:26;;;;;;;16.55;5.53;;;18.90;99.90;;;;;;5058246;28;20087;-90
2022/09/04 09:59:03;;;;;;;8.40;5.03;;;19.00;99.90;;;;;;5058290;28;20049;-92
2022/09/04 10:01:42;;;;;;;15.43;5.47;;;19.20;99.90;;;;;;5063768;28;20163;-92
2022/09/04 10:04:32;;;;;;;19.80;5.55;;;19.30;99.90;;;;;;5028848;28;20025;-93
2022/09/04 10:07:09;;;;;;;11.07;4.60;;;19.30;99.90;;;;;;5061402;28;20018;-93
2022/09/04 10:09:53;;;;;;;14.43;5.53;;;19.40;99.90;;;;;;5041973;28;20322;-92
2022/09/04 10:12:37;;;;;;;8.18;4.70;;;19.40;99.90;;;;;;5067366;28;20171;-92
2022/09/04 10:15:36;;;;;;;12.02;4.70;;;19.30;99.90;;;;;;5064163;28;20040;-93
2022/09/04 10:18:08;;;;;;;14.95;4.82;;;19.30;99.90;;;;;;5019317;28;20037;-93
2022/09/04 10:21:09;;;;;;;15.70;5.72;;;19.40;99.90;;;;;;5048576;28;20029;-92
2022/09/04 10:24:01;;;;;;;11.73;4.25;;;19.40;99.90;;;;;;5064983;28;20068;-92
2022/09/04 10:26:57;;;;;;;13.13;4.20;;;19.50;99.90;;;;;;5056835;28;20482;-93
2022/09/04 10:29:54;;;;;;;10.65;4.22;;;19.60;99.90;;;;;;5047769;28;20118;-93
2022/09/04 10:32:36;;;;;;;16.10;5.15;;;19.60;99.90;;;;;;5069486;28;20048;-92
2022/09/04 10:35:19;;;;;;;8.15;3.90;;;19.60;99.90;;;;;;5052888;28;20029;-90
2022/09/04 10:38:23;;;;;;;13.23;4.80;;;19.60;99.90;;;;;;5069380;28;20021;-92
2022/09/04 10:41:04;;;;;;;10.95;4.25;;;19.50;99.90;;;;;;5072030;28;20288;-93
2022/09/04 10:44:11;;;;;;;10.45;4.45;;;19.50;99.90;;;;;;5072675;28;20020;-93
2022/09/04 10:46:39;;;;;;;14.05;4.95;;;19.50;99.90;;;;;;5056326;28;20032;-93
2022/09/04 10:49:05;;;;;;;12.77;3.90;;;19.50;99.90;;;;;;5066224;28;20098;-91
2022/09/04 10:51:50;;;;;;;12.85;4.60;;;19.40;99.90;;;;;;5047064;28;20029;-92
2022/09/04 10:54:27;;;;;;;12.60;4.90;;;19.40;99.90;;;;;;5038904;28;20121;-93
2022/09/04 10:57:02;;;;;;;12.77;3.97;;;19.30;99.90;;;;;;5041190;28;20106;-93
2022/09/04 10:59:57;;;;;;;7.38;3.72;;;19.30;99.90;;;;;;5058622;28;20032;-92
2022/09/04 11:03:02;;;;;;;14.02;4.13;;;19.30;99.90;;;;;;5077340;28;20037;-91
2022/09/04 11:06:10;;;;;;;11.10;5.60;;;19.20;99.90;;;;;;5057968;28;20040;-91
2022/09/04 11:08:41;;;;;;;9.10;3.90;;;19.20;99.90;;;;;;5040247;28;20087;-91
2022/09/04 11:11:43;;;;;;;11.15;3.90;;;19.20;99.90;;;;;;5038869;28;20037;-91
2022/09/04 11:14:20;;;;;;;9.40;3.55;;;19.30;99.90;;;;;;5018500;28;20030;-90
2022/09/04 11:17:16;;;;;;;8.20;3.80;;;19.30;99.90;;;;;;5037688;28;20104;-90
2022/09/04 11:20:19;;;;;;;13.35;4.40;;;19.20;99.90;;;;;;5035526;28;20045;-91
2022/09/04 11:23:00;;;;;;;15.75;4.72;;;19.20;99.90;;;;;;5038222;28;20088;-89
2022/09/04 11:25:38;;;;;;;17.00;4.75;;;19.20;99.90;;;;;;5049165;28;20045;-91
2022/09/04 11:28:19;;;;;;;14.68;4.78;;;19.20;99.90;;;;;;5036962;28;20021;-91
2022/09/04 11:30:57;;;;;;;12.63;4.00;;;19.30;99.90;;;;;;5034032;28;20061;-90
2022/09/04 11:34:01;;;;;;;12.57;4.63;;;19.30;99.90;;;;;;5017155;28;20029;-93
2022/09/04 11:37:04;;;;;;;10.35;4.57;;;19.40;99.90;;;;;;4974550;28;20037;-90
2022/09/04 11:39:41;;;;;;;11.68;4.32;;;19.50;99.90;;;;;;4975127;28;20046;-91
2022/09/04 11:42:20;;;;;;;10.77;4.03;;;19.60;99.90;;;;;;4944068;28;20050;-92
2022/09/04 11:45:27;;;;;;;13.15;3.95;;;19.70;99.90;;;;;;4966445;28;20582;-91
2022/09/04 11:47:56;;;;;;;12.82;4.68;;;19.80;99.90;;;;;;4962962;28;20030;-92
2022/09/04 11:50:31;;;;;;;15.35;4.20;;;19.80;99.90;;;;;;4974068;28;20031;-90
2022/09/04 11:53:11;;;;;;;11.98;3.78;;;19.90;99.90;;;;;;4974280;28;20105;-91
2022/09/04 11:55:52;;;;;;;7.00;3.30;;;20.00;99.90;;;;;;4958277;28;20038;-91
2022/09/04 11:58:23;;;;;;;;;;;20.10;99.90;;;;;;4975170;28;20050;-92
2022/09/04 12:01:28;;;;;;;14.40;3.67;;;20.20;99.90;;;;;;4974527;28;19914;-91
2022/09/04 12:04:21;;;;;;;9.52;3.50;;;20.30;99.90;;;;;;4958241;28;20118;-94
2022/09/04 12:07:32;;;;;;;10.35;3.88;;;20.30;99.90;;;;;;4983830;28;20038;-92
2022/09/04 12:10:18;;;;;;;8.55;3.60;;;20.30;99.90;;;;;;5011690;28;20041;-92
2022/09/04 12:13:05;;;;;;;9.43;3.35;;;20.20;99.90;;;;;;4996975;28;20026;-93
2022/09/04 12:15:31;;;;;;;9.35;3.17;;;20.20;99.90;;;;;;4997607;28;20037;-91
2022/09/04 12:18:32;;;;;;;13.98;4.43;;;20.20;99.90;;;;;;5001379;28;20048;-92
2022/09/04 12:21:34;;;;;;;12.27;3.05;;;20.20;99.90;;;;;;5012821;28;20018;-91
2022/09/04 12:24:13;;;;;;;13.65;3.05;;;20.20;99.90;;;;;;5012656;28;20066;-91
2022/09/04 12:27:15;;;;;;;10.38;3.15;;;20.20;99.90;;;;;;5056799;28;20032;-92
2022/09/04 12:30:02;;;;;;;8.63;2.85;;;20.10;99.90;;;;;;5057185;28;20033;-92
2022/09/04 12:32:49;;;;;;;10.48;3.03;;;20.20;99.90;;;;;;5060754;28;20076;-90
2022/09/04 12:35:30;;;;;;;7.35;3.13;;;20.20;99.90;;;;;;5091843;28;20032;-92
2022/09/04 12:38:14;;;;;;;9.43;3.70;;;20.20;99.90;;;;;;5075611;28;20024;-90
2022/09/04 12:41:11;;;;;;;11.38;3.03;;;20.20;99.90;;;;;;5060520;28;20067;-91
2022/09/04 12:44:00;;;;;;;6.68;2.72;;;20.30;99.90;;;;;;5058303;28;20032;-92
2022/09/04 12:46:47;;;;;;;9.27;3.00;;;20.30;99.90;;;;;;5057512;28;20398;-92
2022/09/04 12:50:04;;;;;;;8.10;3.30;;;20.50;99.90;;;;;;5076780;28;20040;-89
2022/09/04 12:52:56;;;;;;;12.30;2.60;;;20.90;99.90;;;;;;4991675;28;20034;-91
2022/09/04 12:55:51;;;;;;;8.70;2.97;;;21.20;99.90;;;;;;5006540;28;20066;-91
2022/09/04 12:58:35;;;;;;;12.40;2.67;;;21.60;99.90;;;;;;4998663;28;20611;-91
2022/09/04 13:01:17;;;;;;;10.68;2.42;;;21.90;99.90;;;;;;5013380;28;20022;-92
2022/09/04 13:03:43;;;;;;;6.45;1.90;;;21.90;99.90;;;;;;5012615;28;20040;-91
2022/09/04 13:06:18;;;;;;;10.63;2.30;;;21.90;99.90;;;;;;5012812;28;20109;-93
2022/09/04 13:08:43;;;;;;;7.93;2.63;;;21.80;99.90;;;;;;5012931;28;20437;-92
2022/09/04 13:11:36;;;;;;;7.70;2.60;;;21.70;99.90;;;;;;5012626;28;20074;-91
2022/09/04 13:14:41;;;;;;;7.30;2.25;;;21.60;99.90;;;;;;5012514;28;20033;-93
2022/09/04 13:17:20;;;;;;;7.90;2.45;;;21.50;99.90;;;;;;4996448;28;20107;-92
2022/09/04 13:20:07;;;;;;;9.27;2.13;;;21.60;99.90;;;;;;4996325;28;20034;-91
2022/09/04 13:22:57;;;;;;;5.15;1.95;;;21.60;99.90;;;;;;5012937;28;20033;-91
2022/09/04 13:25:28;;;;;;;10.98;2.45;;;21.60;99.90;;;;;;4996394;28;20137;-92
2022/09/04 13:27:57;;;;;;;6.32;2.20;;;21.60;99.90;;;;;;5038153;28;20028;-92
2022/09/04 13:30:24;;;;;;;12.93;2.58;;;21.50;99.90;;;;;;5056490;28;20114;-91
2022/09/04 13:32:58;;;;;;;7.20;2.17;;;21.40;99.90;;;;;;5074186;28;20039;-91
2022/09/04 13:35:52;;;;;;;7.75;2.22;;;21.30;99.90;;;;;;5056921;28;20556;-92
2022/09/04 13:38:38;;;;;;;7.32;2.50;;;21.30;99.90;;;;;;5056224;28;20043;-92
2022/09/04 13:41:34;;;;;;;8.02;2.17;;;21.30;99.90;;;;;;5056326;28;20041;-92
2022/09/04 13:44:18;;;;;;;10.60;2.53;;;21.30;99.90;;;;;;5074849;28;20031;-92
2022/09/04 13:46:58;;;;;;;9.30;2.88;;;21.30;99.90;;;;;;5056225;28;20033;-91
2022/09/04 13:49:35;;;;;;;7.22;2.80;;;21.30;99.90;;;;;;5058847;28;20021;-92
2022/09/04 13:52:07;;;;;;;11.13;3.50;;;21.30;99.90;;;;;;5057383;28;20497;-92
2022/09/04 13:54:35;;;;;;;12.48;2.80;;;21.20;99.90;;;;;;5058242;28;20028;-90
2022/09/04 13:57:17;;;;;;;9.07;2.33;;;21.20;99.90;;;;;;5083656;28;20023;-92
2022/09/04 13:59:48;;;;;;;4.80;2.03;;;21.20;99.90;;;;;;5062080;28;20043;-92
2022/09/04 14:02:23;;;;;;;11.68;3.33;;;21.20;99.90;;;;;;5059881;28;20029;-91
2022/09/04 14:04:52;;;;;;;8.35;2.30;;;21.20;99.90;;;;;;5060455;28;20036;-92
2022/09/04 14:07:37;;;;;;;9.47;2.80;;;21.20;99.90;;;;;;5060082;28;20028;-93
2022/09/04 14:10:30;;;;;;;6.38;2.40;;;21.20;99.90;;;;;;5060752;28;20274;-92
2022/09/04 14:13:14;;;;;;;10.93;2.35;;;21.20;99.90;;;;;;5059180;28;20017;-92
2022/09/04 14:15:39;;;;;;;9.32;2.58;;;21.10;99.90;;;;;;5059698;28;20081;-91
2022/09/04 14:18:18;;;;;;;7.30;2.22;;;21.10;99.90;;;;;;5059911;28;20158;-92
2022/09/04 14:20:56;;;;;;;5.57;2.00;;;21.10;99.90;;;;;;5069343;28;20051;-91